sensor_id;sensor_type;location;lat;lon;timestamp;temperature;humidity
12470;DHT22;36499;46.484;13.832;2022-11-23T00:00:17;1.40;99.90
12470;DHT22;36499;46.484;13.832;2022-11-23T00:02:44;1.40;99.90
12470;DHT22;36499;46.484;13.832;2022-11-23T00:05:11;1.50;99.90
12470;DHT22;36499;46.484;13.832;2022-11-23T00:07:38;1.50;99.90
12470;DHT22;36499;46.484;13.832;2022-11-23T00:10:06;1.50;99.90
12470;DHT22;36499;46.484;13.832;2022-11-23T00:12:34;1.50;99.90
12470;DHT22;36499;46.484;13.832;2022-11-23T00:15:01;1.50;99.90
12470;DHT22;36499;46.484;13.832;2022-11-23T00:17:29;1.40;99.90
12470;DHT22;36499;46.484;13.832;2022-11-23T00:19:56;1.40;99.90
12470;DHT22;36499;46.484;13.832;2022-11-23T00:22:23;1.40;99.90
12470;DHT22;36499;46.484;13.832;2022-11-23T00:24:51;1.30;99.90
12470;DHT22;36499;46.484;13.832;2022-11-23T00:27:18;1.30;99.90
12470;DHT22;36499;46.484;13.832;2022-11-23T00:29:45;1.30;99.90
12470;DHT22;36499;46.484;13.832;2022-11-23T00:32:12;1.30;99.90
12470;DHT22;36499;46.484;13.832;2022-11-23T00:34:40;1.20;99.90
12470;DHT22;36499;46.484;13.832;2022-11-23T00:37:08;1.20;99.90
12470;DHT22;36499;46.484;13.832;2022-11-23T00:39:35;1.20;99.90
12470;DHT22;36499;46.484;13.832;2022-11-23T00:42:02;1.20;99.90
12470;DHT22;36499;46.484;13.832;2022-11-23T00:44:29;1.20;99.90
12470;DHT22;36499;46.484;13.832;2022-11-23T00:46:56;1.20;99.90
12470;DHT22;36499;46.484;13.832;2022-11-23T00:49:23;1.20;99.90
12470;DHT22;36499;46.484;13.832;2022-11-23T00:51:52;1.20;99.90
12470;DHT22;36499;46.484;13.832;2022-11-23T00:54:19;1.20;99.90
12470;DHT22;36499;46.484;13.832;2022-11-23T00:56:46;1.20;99.90
12470;DHT22;36499;46.484;13.832;2022-11-23T00:59:13;1.20;99.90
12470;DHT22;36499;46.484;13.832;2022-11-23T01:01:40;1.20;99.90
12470;DHT22;36499;46.484;13.832;2022-11-23T01:04:07;1.30;99.90
12470;DHT22;36499;46.484;13.832;2022-11-23T01:06:36;1.20;99.90
12470;DHT22;36499;46.484;13.832;2022-11-23T01:09:13;1.10;99.90
12470;DHT22;36499;46.484;13.832;2022-11-23T01:11:43;1.20;99.90
12470;DHT22;36499;46.484;13.832;2022-11-23T01:14:11;1.20;99.90
12470;DHT22;36499;46.484;13.832;2022-11-23T01:16:39;1.30;99.90
12470;DHT22;36499;46.484;13.832;2022-11-23T01:19:09;1.30;99.90
12470;DHT22;36499;46.484;13.832;2022-11-23T01:21:38;1.30;99.90
12470;DHT22;36499;46.484;13.832;2022-11-23T01:24:10;1.30;99.90
12470;DHT22;36499;46.484;13.832;2022-11-23T01:26:39;1.30;99.90
12470;DHT22;36499;46.484;13.832;2022-11-23T01:29:08;1.30;99.90
12470;DHT22;36499;46.484;13.832;2022-11-23T01:31:35;1.30;99.90
12470;DHT22;36499;46.484;13.832;2022-11-23T01:34:03;1.30;99.90
12470;DHT22;36499;46.484;13.832;2022-11-23T01:36:32;1.40;99.90
12470;DHT22;36499;46.484;13.832;2022-11-23T01:39:00;1.40;99.90
12470;DHT22;36499;46.484;13.832;2022-11-23T01:41:32;1.40;99.90
12470;DHT22;36499;46.484;13.832;2022-11-23T01:44:24;1.40;99.90
12470;DHT22;36499;46.484;13.832;2022-11-23T01:46:56;1.40;99.90
12470;DHT22;36499;46.484;13.832;2022-11-23T01:49:27;1.40;99.90
12470;DHT22;36499;46.484;13.832;2022-11-23T01:51:58;1.40;99.90
12470;DHT22;36499;46.484;13.832;2022-11-23T01:54:35;1.40;99.90
12470;DHT22;36499;46.484;13.832;2022-11-23T01:57:10;1.40;99.90
12470;DHT22;36499;46.484;13.832;2022-11-23T01:59:42;1.40;99.90
12470;DHT22;36499;46.484;13.832;2022-11-23T02:02:11;1.40;99.90
12470;DHT22;36499;46.484;13.832;2022-11-23T02:04:42;1.40;99.90
12470;DHT22;36499;46.484;13.832;2022-11-23T02:07:13;1.40;99.90
12470;DHT22;36499;46.484;13.832;2022-11-23T02:09:43;1.40;99.90
12470;DHT22;36499;46.484;13.832;2022-11-23T02:12:13;1.40;99.90
12470;DHT22;36499;46.484;13.832;2022-11-23T02:14:41;1.50;99.90
12470;DHT22;36499;46.484;13.832;2022-11-23T02:17:08;1.50;99.90
12470;DHT22;36499;46.484;13.832;2022-11-23T02:19:40;1.50;99.90
12470;DHT22;36499;46.484;13.832;2022-11-23T02:22:27;1.50;99.90
12470;DHT22;36499;46.484;13.832;2022-11-23T02:25:06;1.50;99.90
12470;DHT22;36499;46.484;13.832;2022-11-23T02:27:38;1.60;99.90
12470;DHT22;36499;46.484;13.832;2022-11-23T02:30:08;1.60;99.90
12470;DHT22;36499;46.484;13.832;2022-11-23T02:32:37;1.60;99.90
12470;DHT22;36499;46.484;13.832;2022-11-23T02:35:04;1.60;99.90
12470;DHT22;36499;46.484;13.832;2022-11-23T02:37:32;1.70;99.90
12470;DHT22;36499;46.484;13.832;2022-11-23T02:40:01;1.70;99.90
12470;DHT22;36499;46.484;13.832;2022-11-23T02:42:38;1.70;99.90
12470;DHT22;36499;46.484;13.832;2022-11-23T02:45:10;1.80;99.90
12470;DHT22;36499;46.484;13.832;2022-11-23T02:47:44;1.70;99.90
12470;DHT22;36499;46.484;13.832;2022-11-23T02:50:13;1.80;99.90
12470;DHT22;36499;46.484;13.832;2022-11-23T02:52:40;1.70;99.90
12470;DHT22;36499;46.484;13.832;2022-11-23T02:55:08;1.70;99.90
12470;DHT22;36499;46.484;13.832;2022-11-23T02:57:35;1.70;99.90
12470;DHT22;36499;46.484;13.832;2022-11-23T03:00:05;1.70;99.90
12470;DHT22;36499;46.484;13.832;2022-11-23T03:02:33;1.70;99.90
12470;DHT22;36499;46.484;13.832;2022-11-23T03:05:00;1.70;99.90
12470;DHT22;36499;46.484;13.832;2022-11-23T03:07:27;1.70;99.90
12470;DHT22;36499;46.484;13.832;2022-11-23T03:09:54;1.80;99.90
12470;DHT22;36499;46.484;13.832;2022-11-23T03:12:22;1.70;99.90
12470;DHT22;36499;46.484;13.832;2022-11-23T03:14:49;1.80;99.90
12470;DHT22;36499;46.484;13.832;2022-11-23T03:17:17;1.80;99.90
12470;DHT22;36499;46.484;13.832;2022-11-23T03:19:44;1.80;99.90
12470;DHT22;36499;46.484;13.832;2022-11-23T03:22:11;1.80;99.90
12470;DHT22;36499;46.484;13.832;2022-11-23T03:24:39;1.80;99.90
12470;DHT22;36499;46.484;13.832;2022-11-23T03:27:06;1.80;99.90
12470;DHT22;36499;46.484;13.832;2022-11-23T03:29:33;1.80;99.90
12470;DHT22;36499;46.484;13.832;2022-11-23T03:32:00;1.80;99.90
12470;DHT22;36499;46.484;13.832;2022-11-23T03:34:28;1.80;99.90
12470;DHT22;36499;46.484;13.832;2022-11-23T03:36:55;1.70;99.90
12470;DHT22;36499;46.484;13.832;2022-11-23T03:39:22;1.70;99.90
12470;DHT22;36499;46.484;13.832;2022-11-23T03:41:50;1.70;99.90
12470;DHT22;36499;46.484;13.832;2022-11-23T03:44:17;1.70;99.90
12470;DHT22;36499;46.484;13.832;2022-11-23T03:46:44;1.70;99.90
12470;DHT22;36499;46.484;13.832;2022-11-23T03:49:11;1.70;99.90
12470;DHT22;36499;46.484;13.832;2022-11-23T03:51:39;1.70;99.90
12470;DHT22;36499;46.484;13.832;2022-11-23T03:54:07;1.70;99.90
12470;DHT22;36499;46.484;13.832;2022-11-23T03:56:34;1.70;99.90
12470;DHT22;36499;46.484;13.832;2022-11-23T03:59:01;1.70;99.90
12470;DHT22;36499;46.484;13.832;2022-11-23T04:01:28;1.70;99.90
12470;DHT22;36499;46.484;13.832;2022-11-23T04:03:55;1.70;99.90
12470;DHT22;36499;46.484;13.832;2022-11-23T04:06:22;1.70;99.90
12470;DHT22;36499;46.484;13.832;2022-11-23T04:08:51;1.70;99.90
12470;DHT22;36499;46.484;13.832;2022-11-23T04:11:18;1.70;99.90
12470;DHT22;36499;46.484;13.832;2022-11-23T04:13:45;1.70;99.90
12470;DHT22;36499;46.484;13.832;2022-11-23T04:16:12;1.70;99.90
12470;DHT22;36499;46.484;13.832;2022-11-23T04:18:39;1.70;99.90
12470;DHT22;36499;46.484;13.832;2022-11-23T04:21:06;1.70;99.90
12470;DHT22;36499;46.484;13.832;2022-11-23T04:23:33;1.60;99.90
12470;DHT22;36499;46.484;13.832;2022-11-23T04:26:02;1.70;99.90
12470;DHT22;36499;46.484;13.832;2022-11-23T04:28:29;1.70;99.90
12470;DHT22;36499;46.484;13.832;2022-11-23T04:30:56;1.60;99.90
12470;DHT22;36499;46.484;13.832;2022-11-23T04:33:23;1.60;99.90
12470;DHT22;36499;46.484;13.832;2022-11-23T04:35:50;1.70;99.90
12470;DHT22;36499;46.484;13.832;2022-11-23T04:38:17;1.70;99.90
12470;DHT22;36499;46.484;13.832;2022-11-23T04:40:46;1.70;99.90
12470;DHT22;36499;46.484;13.832;2022-11-23T04:43:15;1.70;99.90
12470;DHT22;36499;46.484;13.832;2022-11-23T04:45:42;1.70;99.90
12470;DHT22;36499;46.484;13.832;2022-11-23T04:48:10;1.70;99.90
12470;DHT22;36499;46.484;13.832;2022-11-23T04:50:37;1.70;99.90
12470;DHT22;36499;46.484;13.832;2022-11-23T04:53:06;1.70;99.90
12470;DHT22;36499;46.484;13.832;2022-11-23T04:55:33;1.60;99.90
12470;DHT22;36499;46.484;13.832;2022-11-23T04:58:01;1.60;99.90
12470;DHT22;36499;46.484;13.832;2022-11-23T05:00:29;1.60;99.90
12470;DHT22;36499;46.484;13.832;2022-11-23T05:02:58;1.60;99.90
12470;DHT22;36499;46.484;13.832;2022-11-23T05:05:26;1.60;99.90
12470;DHT22;36499;46.484;13.832;2022-11-23T05:07:53;1.60;99.90
12470;DHT22;36499;46.484;13.832;2022-11-23T05:10:20;1.60;99.90
12470;DHT22;36499;46.484;13.832;2022-11-23T05:12:47;1.60;99.90
12470;DHT22;36499;46.484;13.832;2022-11-23T05:15:14;1.50;99.90
12470;DHT22;36499;46.484;13.832;2022-11-23T05:17:43;1.50;99.90
12470;DHT22;36499;46.484;13.832;2022-11-23T05:20:11;1.50;99.90
12470;DHT22;36499;46.484;13.832;2022-11-23T05:22:38;1.50;99.90
12470;DHT22;36499;46.484;13.832;2022-11-23T05:25:06;1.60;99.90
12470;DHT22;36499;46.484;13.832;2022-11-23T05:27:34;1.60;99.90
12470;DHT22;36499;46.484;13.832;2022-11-23T05:30:01;1.60;99.90
12470;DHT22;36499;46.484;13.832;2022-11-23T05:32:29;1.60;99.90
12470;DHT22;36499;46.484;13.832;2022-11-23T05:34:57;1.70;99.90
12470;DHT22;36499;46.484;13.832;2022-11-23T05:37:24;1.60;99.90
12470;DHT22;36499;46.484;13.832;2022-11-23T05:39:51;1.60;99.90
12470;DHT22;36499;46.484;13.832;2022-11-23T05:42:18;1.60;99.90
12470;DHT22;36499;46.484;13.832;2022-11-23T05:44:45;1.50;99.90
12470;DHT22;36499;46.484;13.832;2022-11-23T05:47:12;1.50;99.90
12470;DHT22;36499;46.484;13.832;2022-11-23T05:49:40;1.50;99.90
12470;DHT22;36499;46.484;13.832;2022-11-23T05:52:08;1.40;99.90
12470;DHT22;36499;46.484;13.832;2022-11-23T05:54:35;1.40;99.90
12470;DHT22;36499;46.484;13.832;2022-11-23T05:57:02;1.30;99.90
12470;DHT22;36499;46.484;13.832;2022-11-23T05:59:29;1.40;99.90
12470;DHT22;36499;46.484;13.832;2022-11-23T06:01:56;1.40;99.90
12470;DHT22;36499;46.484;13.832;2022-11-23T06:04:24;1.40;99.90
12470;DHT22;36499;46.484;13.832;2022-11-23T06:06:51;1.40;99.90
12470;DHT22;36499;46.484;13.832;2022-11-23T06:09:20;1.40;99.90
12470;DHT22;36499;46.484;13.832;2022-11-23T06:11:47;1.40;99.90
12470;DHT22;36499;46.484;13.832;2022-11-23T06:14:14;1.40;99.90
12470;DHT22;36499;46.484;13.832;2022-11-23T06:16:41;1.40;99.90
12470;DHT22;36499;46.484;13.832;2022-11-23T06:19:08;1.40;99.90
12470;DHT22;36499;46.484;13.832;2022-11-23T06:21:36;1.40;99.90
12470;DHT22;36499;46.484;13.832;2022-11-23T06:24:03;1.40;99.90
12470;DHT22;36499;46.484;13.832;2022-11-23T06:26:32;1.40;99.90
12470;DHT22;36499;46.484;13.832;2022-11-23T06:28:59;1.40;99.90
12470;DHT22;36499;46.484;13.832;2022-11-23T06:31:26;1.40;99.90
12470;DHT22;36499;46.484;13.832;2022-11-23T06:33:53;1.40;99.90
12470;DHT22;36499;46.484;13.832;2022-11-23T06:36:20;1.40;99.90
12470;DHT22;36499;46.484;13.832;2022-11-23T06:38:48;1.40;99.90
12470;DHT22;36499;46.484;13.832;2022-11-23T06:41:15;1.40;99.90
12470;DHT22;36499;46.484;13.832;2022-11-23T06:43:45;1.40;99.90
12470;DHT22;36499;46.484;13.832;2022-11-23T06:46:12;1.40;99.90
12470;DHT22;36499;46.484;13.832;2022-11-23T06:48:42;1.40;99.90
12470;DHT22;36499;46.484;13.832;2022-11-23T06:51:10;1.40;99.90
12470;DHT22;36499;46.484;13.832;2022-11-23T06:53:37;1.50;99.90
12470;DHT22;36499;46.484;13.832;2022-11-23T06:56:05;1.50;99.90
12470;DHT22;36499;46.484;13.832;2022-11-23T06:58:33;1.50;99.90
12470;DHT22;36499;46.484;13.832;2022-11-23T07:01:03;1.50;99.90
12470;DHT22;36499;46.484;13.832;2022-11-23T07:03:33;1.50;99.90
12470;DHT22;36499;46.484;13.832;2022-11-23T07:06:03;1.60;99.90
12470;DHT22;36499;46.484;13.832;2022-11-23T07:08:31;1.60;99.90
12470;DHT22;36499;46.484;13.832;2022-11-23T07:11:00;1.70;99.90
12470;DHT22;36499;46.484;13.832;2022-11-23T07:13:28;1.70;99.90
12470;DHT22;36499;46.484;13.832;2022-11-23T07:15:56;1.80;99.90
12470;DHT22;36499;46.484;13.832;2022-11-23T07:18:26;1.80;99.90
12470;DHT22;36499;46.484;13.832;2022-11-23T07:20:53;1.80;99.90
12470;DHT22;36499;46.484;13.832;2022-11-23T07:23:22;1.80;99.90
12470;DHT22;36499;46.484;13.832;2022-11-23T07:25:49;1.80;99.90
12470;DHT22;36499;46.484;13.832;2022-11-23T07:28:16;1.80;99.90
12470;DHT22;36499;46.484;13.832;2022-11-23T07:30:44;1.80;99.90
12470;DHT22;36499;46.484;13.832;2022-11-23T07:33:11;1.90;99.90
12470;DHT22;36499;46.484;13.832;2022-11-23T07:35:40;1.90;99.90
12470;DHT22;36499;46.484;13.832;2022-11-23T07:38:07;1.90;99.90
12470;DHT22;36499;46.484;13.832;2022-11-23T07:40:36;1.90;99.90
12470;DHT22;36499;46.484;13.832;2022-11-23T07:43:05;1.90;99.90
12470;DHT22;36499;46.484;13.832;2022-11-23T07:45:33;2.00;99.90
12470;DHT22;36499;46.484;13.832;2022-11-23T07:48:03;2.00;99.90
12470;DHT22;36499;46.484;13.832;2022-11-23T07:50:51;2.10;99.90
12470;DHT22;36499;46.484;13.832;2022-11-23T07:53:19;2.10;99.90
12470;DHT22;36499;46.484;13.832;2022-11-23T07:55:47;2.10;99.90
12470;DHT22;36499;46.484;13.832;2022-11-23T07:58:14;2.20;99.90
12470;DHT22;36499;46.484;13.832;2022-11-23T08:00:41;2.20;99.90
12470;DHT22;36499;46.484;13.832;2022-11-23T08:03:10;2.20;99.90
12470;DHT22;36499;46.484;13.832;2022-11-23T08:05:40;2.20;99.90
12470;DHT22;36499;46.484;13.832;2022-11-23T08:08:08;2.20;99.90
12470;DHT22;36499;46.484;13.832;2022-11-23T08:10:36;2.20;99.90
12470;DHT22;36499;46.484;13.832;2022-11-23T08:13:04;2.30;99.90
12470;DHT22;36499;46.484;13.832;2022-11-23T08:15:32;2.30;99.90
12470;DHT22;36499;46.484;13.832;2022-11-23T08:18:00;2.30;99.90
12470;DHT22;36499;46.484;13.832;2022-11-23T08:20:29;2.40;99.90
12470;DHT22;36499;46.484;13.832;2022-11-23T08:22:57;2.40;99.90
12470;DHT22;36499;46.484;13.832;2022-11-23T08:25:27;2.40;99.90
12470;DHT22;36499;46.484;13.832;2022-11-23T08:27:55;2.50;99.90
12470;DHT22;36499;46.484;13.832;2022-11-23T08:30:23;2.50;99.90
12470;DHT22;36499;46.484;13.832;2022-11-23T08:32:51;2.50;99.90
12470;DHT22;36499;46.484;13.832;2022-11-23T08:35:18;2.50;99.90
12470;DHT22;36499;46.484;13.832;2022-11-23T08:37:46;2.60;99.90
12470;DHT22;36499;46.484;13.832;2022-11-23T08:40:13;2.60;99.90
12470;DHT22;36499;46.484;13.832;2022-11-23T08:42:42;2.60;99.90
12470;DHT22;36499;46.484;13.832;2022-11-23T08:45:10;2.70;99.90
12470;DHT22;36499;46.484;13.832;2022-11-23T08:47:37;2.70;99.90
12470;DHT22;36499;46.484;13.832;2022-11-23T08:50:05;2.70;99.90
12470;DHT22;36499;46.484;13.832;2022-11-23T08:52:33;2.70;99.90
12470;DHT22;36499;46.484;13.832;2022-11-23T08:55:00;2.70;99.90
12470;DHT22;36499;46.484;13.832;2022-11-23T08:57:27;2.70;99.90
12470;DHT22;36499;46.484;13.832;2022-11-23T08:59:56;2.80;99.90
12470;DHT22;36499;46.484;13.832;2022-11-23T09:02:23;2.80;99.90
12470;DHT22;36499;46.484;13.832;2022-11-23T09:04:50;2.90;99.90
12470;DHT22;36499;46.484;13.832;2022-11-23T09:07:17;2.90;99.90
12470;DHT22;36499;46.484;13.832;2022-11-23T09:09:44;3.00;99.90
12470;DHT22;36499;46.484;13.832;2022-11-23T09:12:11;3.10;99.90
12470;DHT22;36499;46.484;13.832;2022-11-23T09:14:38;3.10;99.90
12470;DHT22;36499;46.484;13.832;2022-11-23T09:17:07;3.10;99.90
12470;DHT22;36499;46.484;13.832;2022-11-23T09:19:34;3.10;99.90
12470;DHT22;36499;46.484;13.832;2022-11-23T09:22:01;3.10;99.90
12470;DHT22;36499;46.484;13.832;2022-11-23T09:24:28;3.20;99.90
12470;DHT22;36499;46.484;13.832;2022-11-23T09:26:55;3.20;99.90
12470;DHT22;36499;46.484;13.832;2022-11-23T09:29:23;3.20;99.90
12470;DHT22;36499;46.484;13.832;2022-11-23T09:31:51;3.20;99.90
12470;DHT22;36499;46.484;13.832;2022-11-23T09:34:20;3.20;99.90
12470;DHT22;36499;46.484;13.832;2022-11-23T09:36:47;3.20;99.90
12470;DHT22;36499;46.484;13.832;2022-11-23T09:39:15;3.20;99.90
12470;DHT22;36499;46.484;13.832;2022-11-23T09:41:57;3.20;99.90
12470;DHT22;36499;46.484;13.832;2022-11-23T09:44:58;3.30;99.90
12470;DHT22;36499;46.484;13.832;2022-11-23T09:48:09;3.30;99.90
12470;DHT22;36499;46.484;13.832;2022-11-23T09:50:52;3.40;99.90
12470;DHT22;36499;46.484;13.832;2022-11-23T09:53:29;3.40;99.90
12470;DHT22;36499;46.484;13.832;2022-11-23T09:56:01;3.50;99.90
12470;DHT22;36499;46.484;13.832;2022-11-23T09:58:31;3.50;99.90
12470;DHT22;36499;46.484;13.832;2022-11-23T10:01:04;3.50;99.90
12470;DHT22;36499;46.484;13.832;2022-11-23T10:03:36;3.60;99.90
12470;DHT22;36499;46.484;13.832;2022-11-23T10:06:15;3.60;99.90
12470;DHT22;36499;46.484;13.832;2022-11-23T10:08:54;3.60;99.90
12470;DHT22;36499;46.484;13.832;2022-11-23T10:11:38;3.60;99.90
12470;DHT22;36499;46.484;13.832;2022-11-23T10:14:29;3.60;99.90
12470;DHT22;36499;46.484;13.832;2022-11-23T10:17:12;3.60;99.90
12470;DHT22;36499;46.484;13.832;2022-11-23T10:19:56;3.60;99.90
12470;DHT22;36499;46.484;13.832;2022-11-23T10:22:44;3.60;99.90
12470;DHT22;36499;46.484;13.832;2022-11-23T10:25:19;3.70;99.90
12470;DHT22;36499;46.484;13.832;2022-11-23T10:27:49;3.70;99.90
12470;DHT22;36499;46.484;13.832;2022-11-23T10:30:18;3.70;99.90
12470;DHT22;36499;46.484;13.832;2022-11-23T10:32:49;3.80;99.90
12470;DHT22;36499;46.484;13.832;2022-11-23T10:35:26;3.80;99.90
12470;DHT22;36499;46.484;13.832;2022-11-23T10:38:08;3.90;99.90
12470;DHT22;36499;46.484;13.832;2022-11-23T10:40:38;3.90;99.90
12470;DHT22;36499;46.484;13.832;2022-11-23T10:43:13;3.90;99.90
12470;DHT22;36499;46.484;13.832;2022-11-23T10:45:44;3.90;99.90
12470;DHT22;36499;46.484;13.832;2022-11-23T10:48:11;3.90;99.90
12470;DHT22;36499;46.484;13.832;2022-11-23T10:50:38;3.80;99.90
12470;DHT22;36499;46.484;13.832;2022-11-23T10:53:19;3.80;99.90
12470;DHT22;36499;46.484;13.832;2022-11-23T10:55:52;3.80;99.90
12470;DHT22;36499;46.484;13.832;2022-11-23T10:58:27;3.80;99.90
12470;DHT22;36499;46.484;13.832;2022-11-23T11:00:59;3.80;99.90
12470;DHT22;36499;46.484;13.832;2022-11-23T11:03:31;3.70;99.90
12470;DHT22;36499;46.484;13.832;2022-11-23T11:06:00;3.80;99.90
12470;DHT22;36499;46.484;13.832;2022-11-23T11:08:31;3.80;99.90
12470;DHT22;36499;46.484;13.832;2022-11-23T11:11:01;3.80;99.90
12470;DHT22;36499;46.484;13.832;2022-11-23T11:13:38;3.80;99.90
12470;DHT22;36499;46.484;13.832;2022-11-23T11:16:18;3.80;99.90
12470;DHT22;36499;46.484;13.832;2022-11-23T11:18:47;3.90;99.90
12470;DHT22;36499;46.484;13.832;2022-11-23T11:21:18;3.90;99.90
12470;DHT22;36499;46.484;13.832;2022-11-23T11:23:52;3.90;99.90
12470;DHT22;36499;46.484;13.832;2022-11-23T11:26:22;3.80;99.90
12470;DHT22;36499;46.484;13.832;2022-11-23T11:28:53;3.90;99.90
12470;DHT22;36499;46.484;13.832;2022-11-23T11:31:45;3.90;99.90
12470;DHT22;36499;46.484;13.832;2022-11-23T11:34:23;3.90;99.90
12470;DHT22;36499;46.484;13.832;2022-11-23T11:36:58;3.90;99.90
12470;DHT22;36499;46.484;13.832;2022-11-23T11:39:36;3.90;99.90
12470;DHT22;36499;46.484;13.832;2022-11-23T11:42:15;4.00;99.90
12470;DHT22;36499;46.484;13.832;2022-11-23T11:44:46;4.00;99.90
12470;DHT22;36499;46.484;13.832;2022-11-23T11:47:24;4.00;99.90
12470;DHT22;36499;46.484;13.832;2022-11-23T11:49:57;4.10;99.90
12470;DHT22;36499;46.484;13.832;2022-11-23T11:52:31;4.00;99.90
12470;DHT22;36499;46.484;13.832;2022-11-23T11:55:09;4.00;99.90
12470;DHT22;36499;46.484;13.832;2022-11-23T11:57:44;4.00;99.90
12470;DHT22;36499;46.484;13.832;2022-11-23T12:00:17;4.00;99.90
12470;DHT22;36499;46.484;13.832;2022-11-23T12:02:53;4.00;99.90
12470;DHT22;36499;46.484;13.832;2022-11-23T12:05:34;4.00;99.90
12470;DHT22;36499;46.484;13.832;2022-11-23T12:08:09;4.10;99.90
12470;DHT22;36499;46.484;13.832;2022-11-23T12:10:45;4.10;99.90
12470;DHT22;36499;46.484;13.832;2022-11-23T12:13:18;4.10;99.90
12470;DHT22;36499;46.484;13.832;2022-11-23T12:15:51;4.10;99.90
12470;DHT22;36499;46.484;13.832;2022-11-23T12:18:36;4.20;99.90
12470;DHT22;36499;46.484;13.832;2022-11-23T12:21:24;4.20;99.90
12470;DHT22;36499;46.484;13.832;2022-11-23T12:24:11;4.20;99.90
12470;DHT22;36499;46.484;13.832;2022-11-23T12:26:53;4.30;99.90
12470;DHT22;36499;46.484;13.832;2022-11-23T12:29:50;4.30;99.90
12470;DHT22;36499;46.484;13.832;2022-11-23T12:32:32;4.20;99.90
12470;DHT22;36499;46.484;13.832;2022-11-23T12:35:27;4.30;99.90
12470;DHT22;36499;46.484;13.832;2022-11-23T12:38:11;4.30;99.90
12470;DHT22;36499;46.484;13.832;2022-11-23T12:44:17;4.40;99.90
12470;DHT22;36499;46.484;13.832;2022-11-23T12:47:19;4.40;99.90
12470;DHT22;36499;46.484;13.832;2022-11-23T12:50:04;4.40;99.90
12470;DHT22;36499;46.484;13.832;2022-11-23T12:52:54;4.50;99.90
12470;DHT22;36499;46.484;13.832;2022-11-23T12:55:36;4.50;99.90
12470;DHT22;36499;46.484;13.832;2022-11-23T12:58:15;4.50;99.90
12470;DHT22;36499;46.484;13.832;2022-11-23T13:00:52;4.50;99.90
12470;DHT22;36499;46.484;13.832;2022-11-23T13:03:48;4.50;99.90
12470;DHT22;36499;46.484;13.832;2022-11-23T13:10:01;4.50;99.90
12470;DHT22;36499;46.484;13.832;2022-11-23T13:13:02;4.50;99.90
12470;DHT22;36499;46.484;13.832;2022-11-23T13:16:06;4.50;99.90
12470;DHT22;36499;46.484;13.832;2022-11-23T13:18:55;4.50;99.90
12470;DHT22;36499;46.484;13.832;2022-11-23T13:21:39;4.50;99.90
12470;DHT22;36499;46.484;13.832;2022-11-23T13:24:29;4.50;99.90
12470;DHT22;36499;46.484;13.832;2022-11-23T13:27:28;4.50;99.90
12470;DHT22;36499;46.484;13.832;2022-11-23T13:30:23;4.40;99.90
12470;DHT22;36499;46.484;13.832;2022-11-23T13:32:56;4.50;99.90
12470;DHT22;36499;46.484;13.832;2022-11-23T13:35:54;4.50;99.90
12470;DHT22;36499;46.484;13.832;2022-11-23T13:38:25;4.50;99.90
12470;DHT22;36499;46.484;13.832;2022-11-23T13:40:54;4.60;99.90
12470;DHT22;36499;46.484;13.832;2022-11-23T13:43:24;4.60;99.90
12470;DHT22;36499;46.484;13.832;2022-11-23T13:46:21;4.60;99.90
12470;DHT22;36499;46.484;13.832;2022-11-23T13:48:55;4.60;99.90
12470;DHT22;36499;46.484;13.832;2022-11-23T13:51:26;4.60;99.90
12470;DHT22;36499;46.484;13.832;2022-11-23T13:53:58;4.60;99.90
12470;DHT22;36499;46.484;13.832;2022-11-23T13:56:33;4.60;99.90
12470;DHT22;36499;46.484;13.832;2022-11-23T13:59:28;4.60;99.90
12470;DHT22;36499;46.484;13.832;2022-11-23T14:05:33;4.70;99.90
12470;DHT22;36499;46.484;13.832;2022-11-23T14:08:21;4.70;99.90
12470;DHT22;36499;46.484;13.832;2022-11-23T14:10:50;4.70;99.90
12470;DHT22;36499;46.484;13.832;2022-11-23T14:13:22;4.60;99.90
12470;DHT22;36499;46.484;13.832;2022-11-23T14:15:57;4.50;99.90
12470;DHT22;36499;46.484;13.832;2022-11-23T14:18:55;4.50;99.90
12470;DHT22;36499;46.484;13.832;2022-11-23T14:21:38;4.50;99.90
12470;DHT22;36499;46.484;13.832;2022-11-23T14:24:30;4.40;99.90
12470;DHT22;36499;46.484;13.832;2022-11-23T14:27:19;4.40;99.90
12470;DHT22;36499;46.484;13.832;2022-11-23T14:30:04;4.30;99.90
12470;DHT22;36499;46.484;13.832;2022-11-23T14:32:51;4.30;99.90
12470;DHT22;36499;46.484;13.832;2022-11-23T14:35:31;4.30;99.90
12470;DHT22;36499;46.484;13.832;2022-11-23T14:38:31;4.30;99.90
12470;DHT22;36499;46.484;13.832;2022-11-23T14:41:18;4.20;99.90
12470;DHT22;36499;46.484;13.832;2022-11-23T14:43:48;4.20;99.90
12470;DHT22;36499;46.484;13.832;2022-11-23T14:46:18;4.10;99.90
12470;DHT22;36499;46.484;13.832;2022-11-23T14:48:50;4.10;99.90
12470;DHT22;36499;46.484;13.832;2022-11-23T14:51:22;4.10;99.90
12470;DHT22;36499;46.484;13.832;2022-11-23T14:53:55;4.10;99.90
12470;DHT22;36499;46.484;13.832;2022-11-23T14:56:32;4.10;99.90
12470;DHT22;36499;46.484;13.832;2022-11-23T14:59:04;4.00;99.90
12470;DHT22;36499;46.484;13.832;2022-11-23T15:01:37;4.00;99.90
12470;DHT22;36499;46.484;13.832;2022-11-23T15:04:22;3.90;99.90
12470;DHT22;36499;46.484;13.832;2022-11-23T15:06:54;3.90;99.90
12470;DHT22;36499;46.484;13.832;2022-11-23T15:09:44;3.90;99.90
12470;DHT22;36499;46.484;13.832;2022-11-23T15:12:21;3.90;99.90
12470;DHT22;36499;46.484;13.832;2022-11-23T15:14:49;3.90;99.90
12470;DHT22;36499;46.484;13.832;2022-11-23T15:17:19;3.90;99.90
12470;DHT22;36499;46.484;13.832;2022-11-23T15:19:55;3.90;99.90
12470;DHT22;36499;46.484;13.832;2022-11-23T15:22:24;3.90;99.90
12470;DHT22;36499;46.484;13.832;2022-11-23T15:24:53;3.90;99.90
12470;DHT22;36499;46.484;13.832;2022-11-23T15:27:30;3.90;99.90
12470;DHT22;36499;46.484;13.832;2022-11-23T15:29:59;3.80;99.90
12470;DHT22;36499;46.484;13.832;2022-11-23T15:32:27;3.80;99.90
12470;DHT22;36499;46.484;13.832;2022-11-23T15:34:57;3.80;99.90
12470;DHT22;36499;46.484;13.832;2022-11-23T15:37:27;3.80;99.90
12470;DHT22;36499;46.484;13.832;2022-11-23T15:39:57;3.80;99.90
12470;DHT22;36499;46.484;13.832;2022-11-23T15:42:25;3.80;99.90
12470;DHT22;36499;46.484;13.832;2022-11-23T15:44:54;3.80;99.90
12470;DHT22;36499;46.484;13.832;2022-11-23T15:47:22;3.80;99.90
12470;DHT22;36499;46.484;13.832;2022-11-23T15:49:57;3.70;99.90
12470;DHT22;36499;46.484;13.832;2022-11-23T15:52:28;3.70;99.90
12470;DHT22;36499;46.484;13.832;2022-11-23T15:55:03;3.70;99.90
12470;DHT22;36499;46.484;13.832;2022-11-23T15:57:32;3.70;99.90
12470;DHT22;36499;46.484;13.832;2022-11-23T16:00:01;3.70;99.90
12470;DHT22;36499;46.484;13.832;2022-11-23T16:02:30;3.70;99.90
12470;DHT22;36499;46.484;13.832;2022-11-23T16:05:11;3.70;99.90
12470;DHT22;36499;46.484;13.832;2022-11-23T16:07:52;3.70;99.90
12470;DHT22;36499;46.484;13.832;2022-11-23T16:10:24;3.70;99.90